createdAt,value
2022-09-23T00:01:23.983Z,68.61
2022-09-23T00:03:52.216Z,68.72
2022-09-23T00:06:21.435Z,68.77
2022-09-23T00:08:50.362Z,68.61
2022-09-23T00:11:20.612Z,68.80
2022-09-23T00:13:52.031Z,68.79
2022-09-23T00:16:22.010Z,68.58
2022-09-23T00:18:50.864Z,68.84
2022-09-23T00:21:19.827Z,68.34
2022-09-23T00:23:47.751Z,68.62
2022-09-23T00:26:19.068Z,68.45
2022-09-23T00:28:48.881Z,68.64
2022-09-23T00:31:18.914Z,68.58
2022-09-23T00:33:46.996Z,68.80
2022-09-23T00:36:16.279Z,68.20
2022-09-23T00:38:44.428Z,68.32
2022-09-23T00:41:14.537Z,68.25
2022-09-23T00:43:44.388Z,68.27
2022-09-23T00:46:20.389Z,68.19
2022-09-23T00:48:49.716Z,68.54
2022-09-23T00:51:21.570Z,68.79
2022-09-23T00:53:51.750Z,68.71
2022-09-23T00:56:23.730Z,68.92
2022-09-23T00:58:53.124Z,68.79
2022-09-23T01:01:23.223Z,68.65
2022-09-23T01:03:52.973Z,68.93
2022-09-23T01:06:21.809Z,69.04
2022-09-23T01:08:50.787Z,68.69
2022-09-23T01:11:30.776Z,68.72
2022-09-23T01:14:07.340Z,69.12
2022-09-23T01:16:41.415Z,69.17
2022-09-23T01:19:25.312Z,69.00
2022-09-23T01:22:00.089Z,68.64
2022-09-23T01:24:48.439Z,69.05
2022-09-23T01:27:42.024Z,69.24
2022-09-23T01:30:23.839Z,69.45
2022-09-23T01:33:04.671Z,69.40
2022-09-23T01:35:43.794Z,69.75
2022-09-23T01:38:18.037Z,69.50
2022-09-23T01:40:50.478Z,69.26
2022-09-23T01:43:24.414Z,69.74
2022-09-23T01:45:56.653Z,70.00
2022-09-23T01:48:30.762Z,69.67
2022-09-23T01:51:03.720Z,69.92
2022-09-23T01:53:38.883Z,70.36
2022-09-23T01:56:12.319Z,70.02
2022-09-23T01:58:44.277Z,69.66
2022-09-23T02:01:17.213Z,69.66
2022-09-23T02:03:50.161Z,70.24
2022-09-23T02:06:23.397Z,69.94
2022-09-23T02:08:56.869Z,70.30
2022-09-23T02:11:25.100Z,70.17
2022-09-23T02:13:57.627Z,69.85
2022-09-23T02:16:28.705Z,70.00
2022-09-23T02:19:02.449Z,70.04
2022-09-23T02:21:35.638Z,70.08
2022-09-23T02:24:09.956Z,69.93
2022-09-23T02:26:42.112Z,70.03
2022-09-23T02:29:17.433Z,70.37
2022-09-23T02:31:51.109Z,70.16
2022-09-23T02:34:25.407Z,70.33
2022-09-23T02:37:00.522Z,70.61
2022-09-23T02:39:34.658Z,70.08
2022-09-23T02:42:07.116Z,70.45
2022-09-23T02:44:35.162Z,70.50
2022-09-23T02:47:03.528Z,70.49
2022-09-23T02:49:33.696Z,70.36
2022-09-23T02:52:05.827Z,70.38
2022-09-23T02:54:35.462Z,70.59
2022-09-23T02:57:05.745Z,70.39
2022-09-23T02:59:33.965Z,70.40
2022-09-23T03:02:15.078Z,70.38
2022-09-23T03:04:50.453Z,70.73
2022-09-23T03:07:20.315Z,70.57
2022-09-23T03:09:54.806Z,71.16
2022-09-23T03:12:36.051Z,70.85
2022-09-23T03:15:13.698Z,70.80
2022-09-23T03:17:48.214Z,71.01
2022-09-23T03:20:23.825Z,71.05
2022-09-23T03:22:55.298Z,71.26
2022-09-23T03:25:25.142Z,71.32
2022-09-23T03:27:57.111Z,70.99
2022-09-23T03:30:24.999Z,71.31
2022-09-23T03:32:53.400Z,71.28
2022-09-23T03:35:23.292Z,70.79
2022-09-23T03:37:54.940Z,71.56
2022-09-23T03:40:26.647Z,71.64
2022-09-23T03:42:56.225Z,71.49
2022-09-23T03:45:29.398Z,71.19
2022-09-23T03:47:57.242Z,71.87
2022-09-23T03:50:26.702Z,71.24
2022-09-23T03:52:56.843Z,72.05
2022-09-23T03:55:28.195Z,72.12
2022-09-23T03:57:58.819Z,71.98
2022-09-23T04:00:30.757Z,71.69
2022-09-23T04:02:59.009Z,71.60
2022-09-23T04:05:28.635Z,72.27
2022-09-23T04:07:56.809Z,71.95
2022-09-23T04:10:24.613Z,71.90
2022-09-23T04:12:52.418Z,72.01
2022-09-23T04:15:20.197Z,71.85
2022-09-23T04:17:48.240Z,71.52
2022-09-23T04:20:16.210Z,72.35
2022-09-23T04:22:45.432Z,71.48
2022-09-23T04:25:13.486Z,71.53
2022-09-23T04:27:41.371Z,71.94
2022-09-23T04:30:10.386Z,71.75
2022-09-23T04:32:38.509Z,72.12
2022-09-23T04:35:09.371Z,72.29
2022-09-23T04:37:37.612Z,72.41
2022-09-23T04:40:08.545Z,72.51
2022-09-23T04:42:36.427Z,71.70
2022-09-23T04:45:05.657Z,71.54
2022-09-23T04:47:33.650Z,71.76
2022-09-23T04:50:01.476Z,71.74
2022-09-23T04:52:31.321Z,71.69
2022-09-23T04:54:59.135Z,71.73
2022-09-23T04:57:29.920Z,71.70
2022-09-23T04:59:58.064Z,71.70
2022-09-23T05:02:26.189Z,72.21
2022-09-23T05:04:54.111Z,72.00
2022-09-23T05:07:22.109Z,71.79
2022-09-23T05:09:50.043Z,72.06
2022-09-23T05:12:18.922Z,71.77
2022-09-23T05:14:48.551Z,72.56
2022-09-23T05:17:16.410Z,72.64
2022-09-23T05:19:44.241Z,72.42
2022-09-23T05:22:12.005Z,72.04
2022-09-23T05:24:39.888Z,72.06
2022-09-23T05:27:08.484Z,71.80
2022-09-23T05:29:36.533Z,72.13
2022-09-23T05:32:06.516Z,72.51
2022-09-23T05:34:34.361Z,72.44
2022-09-23T05:37:02.773Z,71.97
2022-09-23T05:39:30.729Z,72.09
2022-09-23T05:42:00.321Z,72.35
2022-09-23T05:44:28.375Z,71.58
2022-09-23T05:46:56.453Z,72.13
2022-09-23T05:49:42.511Z,71.63
2022-09-23T05:52:14.197Z,71.39
2022-09-23T05:54:42.084Z,71.49
2022-09-23T05:57:09.882Z,71.64
2022-09-23T05:59:38.193Z,72.19
2022-09-23T06:02:06.261Z,72.23
2022-09-23T06:04:35.901Z,71.87
2022-09-23T06:07:03.877Z,71.91
2022-09-23T06:09:36.379Z,71.94
2022-09-23T06:12:05.217Z,72.34
2022-09-23T06:14:33.376Z,72.34
2022-09-23T06:17:01.301Z,72.32
2022-09-23T06:19:29.172Z,72.28
2022-09-23T06:21:58.468Z,72.41
2022-09-23T06:24:31.068Z,72.25
2022-09-23T06:26:59.324Z,71.80
2022-09-23T06:29:27.103Z,71.68
2022-09-23T06:31:55.356Z,71.60
2022-09-23T06:34:23.581Z,71.31
2022-09-23T06:36:51.776Z,71.64
2022-09-23T06:39:21.062Z,72.09
2022-09-23T06:41:49.179Z,72.12
2022-09-23T06:44:17.069Z,71.46
2022-09-23T06:46:45.146Z,71.40
2022-09-23T06:49:13.613Z,71.14
2022-09-23T06:51:41.565Z,71.13
2022-09-23T06:54:09.809Z,71.05
2022-09-23T06:56:39.818Z,71.26
2022-09-23T06:59:08.432Z,71.09
2022-09-23T07:01:36.342Z,70.53
2022-09-23T07:04:04.451Z,70.38
2022-09-23T07:06:32.335Z,70.03
2022-09-23T07:09:01.101Z,69.39
2022-09-23T07:11:29.056Z,68.07
2022-09-23T07:13:58.509Z,67.25
2022-09-23T07:16:26.743Z,66.52
2022-09-23T07:18:55.020Z,65.06
2022-09-23T07:21:22.850Z,64.60
2022-09-23T07:23:51.995Z,63.95
2022-09-23T07:26:21.179Z,63.45
2022-09-23T07:28:49.343Z,62.60
2022-09-23T07:31:33.195Z,62.80
2022-09-23T07:34:04.745Z,62.04
2022-09-23T07:36:33.258Z,60.91
2022-09-23T07:39:03.250Z,61.45
2022-09-23T07:41:32.876Z,60.63
2022-09-23T07:44:01.255Z,60.06
2022-09-23T07:46:32.273Z,59.62
2022-09-23T07:49:00.398Z,59.30
2022-09-23T07:51:34.710Z,58.76
2022-09-23T07:54:05.372Z,58.50
2022-09-23T07:56:33.381Z,58.49
2022-09-23T07:59:02.903Z,57.01
2022-09-23T08:01:33.375Z,56.72
2022-09-23T08:04:03.994Z,56.54
2022-09-23T08:06:31.866Z,55.89
2022-09-23T08:09:00.541Z,55.83
2022-09-23T08:11:29.302Z,55.74
2022-09-23T08:13:57.318Z,56.36
2022-09-23T08:16:25.329Z,56.53
2022-09-23T08:18:54.707Z,56.46
2022-09-23T08:21:23.429Z,57.27
2022-09-23T08:23:51.820Z,57.26
2022-09-23T08:26:22.408Z,57.56
2022-09-23T08:28:53.949Z,57.28
2022-09-23T08:31:22.103Z,57.43
2022-09-23T08:33:54.507Z,57.50
2022-09-23T08:36:22.531Z,57.16
2022-09-23T08:38:50.718Z,57.70
2022-09-23T08:41:24.525Z,58.19
2022-09-23T08:43:56.071Z,57.20
2022-09-23T08:46:27.552Z,57.52
2022-09-23T08:48:57.279Z,56.76
2022-09-23T08:51:29.673Z,56.75
2022-09-23T08:53:58.221Z,56.39
2022-09-23T08:56:26.206Z,55.87
2022-09-23T08:59:03.090Z,55.73
2022-09-23T09:01:37.918Z,54.63
2022-09-23T09:04:19.158Z,53.91
2022-09-23T09:06:53.876Z,53.81
2022-09-23T09:09:25.225Z,54.55
2022-09-23T09:11:58.163Z,54.41
2022-09-23T09:14:28.291Z,54.88
2022-09-23T09:17:00.609Z,54.34
2022-09-23T09:19:57.090Z,54.22
2022-09-23T09:22:48.189Z,54.42
2022-09-23T09:25:34.781Z,53.80
2022-09-23T09:28:03.053Z,53.97
2022-09-23T09:30:32.436Z,53.95
2022-09-23T09:33:04.164Z,53.88
2022-09-23T09:35:38.110Z,53.69
2022-09-23T09:38:06.838Z,53.55
2022-09-23T09:40:35.636Z,53.67
2022-09-23T09:43:04.686Z,53.53
2022-09-23T09:45:57.564Z,53.00
2022-09-23T09:48:33.175Z,52.91
2022-09-23T09:51:19.422Z,51.97
2022-09-23T09:53:47.641Z,52.76
2022-09-23T09:56:16.759Z,52.59
2022-09-23T09:58:47.868Z,52.40
2022-09-23T10:01:23.341Z,52.24
2022-09-23T10:03:58.502Z,52.20
2022-09-23T10:06:31.906Z,50.91
2022-09-23T10:09:12.528Z,52.33
2022-09-23T10:11:42.278Z,52.87
2022-09-23T10:14:18.324Z,52.07
2022-09-23T10:16:49.078Z,52.04
2022-09-23T10:19:29.761Z,51.44
2022-09-23T10:22:01.627Z,51.29
2022-09-23T10:24:32.258Z,51.30
2022-09-23T10:27:03.378Z,48.42
2022-09-23T10:29:32.785Z,48.83
2022-09-23T10:32:21.496Z,48.88
2022-09-23T10:34:51.877Z,50.57
2022-09-23T10:37:26.865Z,49.60
2022-09-23T10:40:12.154Z,49.26
2022-09-23T10:43:11.327Z,48.53
2022-09-23T10:45:58.519Z,47.74
2022-09-23T10:48:35.895Z,46.39
2022-09-23T10:51:08.828Z,46.06
2022-09-23T10:53:49.485Z,45.74
2022-09-23T10:56:24.567Z,46.53
2022-09-23T10:59:47.701Z,46.33
2022-09-23T11:02:31.275Z,45.51
2022-09-23T11:05:21.441Z,45.84
2022-09-23T11:07:56.990Z,45.76
2022-09-23T11:10:54.451Z,45.94
2022-09-23T11:13:34.104Z,44.33
2022-09-23T11:16:09.982Z,44.70
2022-09-23T11:18:53.565Z,44.76
2022-09-23T11:21:31.014Z,43.81
2022-09-23T11:24:12.231Z,43.69
2022-09-23T11:26:53.671Z,45.20
2022-09-23T11:29:51.841Z,44.84
2022-09-23T11:32:32.030Z,44.06
2022-09-23T11:35:10.933Z,43.79
2022-09-23T11:37:43.978Z,43.04
2022-09-23T11:40:17.738Z,43.13
2022-09-23T11:42:53.775Z,43.30
2022-09-23T11:45:24.581Z,42.23
2022-09-23T11:47:55.053Z,43.07
2022-09-23T11:50:27.902Z,43.14
2022-09-23T11:52:59.978Z,41.90
2022-09-23T11:55:32.410Z,42.42
2022-09-23T11:58:16.863Z,42.45
2022-09-23T12:01:01.058Z,42.65
2022-09-23T12:03:44.050Z,42.48
2022-09-23T12:06:16.357Z,43.12
2022-09-23T12:08:44.468Z,42.77
2022-09-23T12:11:23.677Z,42.05
2022-09-23T12:13:58.093Z,42.17
2022-09-23T12:17:04.434Z,41.69
2022-09-23T12:19:48.730Z,42.49
2022-09-23T12:22:31.873Z,42.16
2022-09-23T12:25:06.774Z,42.23
2022-09-23T12:27:37.816Z,42.86
2022-09-23T12:30:14.812Z,42.47
2022-09-23T12:32:43.159Z,42.91
2022-09-23T12:35:22.658Z,42.67
2022-09-23T12:37:50.881Z,42.96
2022-09-23T12:40:22.675Z,42.99
2022-09-23T12:42:50.824Z,43.15
2022-09-23T12:45:35.207Z,43.45
2022-09-23T12:48:04.528Z,43.80
2022-09-23T12:50:48.617Z,43.95
2022-09-23T12:53:54.175Z,43.47
2022-09-23T12:56:24.597Z,43.41
2022-09-23T12:59:20.676Z,43.66
2022-09-23T13:01:50.059Z,43.48
2022-09-23T13:04:51.621Z,43.90
2022-09-23T13:07:20.694Z,44.20
2022-09-23T13:09:50.836Z,44.21
2022-09-23T13:12:22.313Z,43.07
2022-09-23T13:14:54.107Z,42.93
2022-09-23T13:17:33.281Z,42.89
2022-09-23T13:20:03.750Z,42.56
2022-09-23T13:23:06.028Z,42.95
2022-09-23T13:25:37.290Z,42.95
2022-09-23T13:28:05.364Z,43.33
2022-09-23T13:30:33.745Z,43.64
2022-09-23T13:33:07.761Z,43.03
2022-09-23T13:35:37.525Z,43.04
2022-09-23T13:38:12.566Z,43.22
2022-09-23T13:40:42.554Z,42.43
2022-09-23T13:43:15.773Z,43.04
2022-09-23T13:45:44.299Z,43.28
2022-09-23T13:48:15.840Z,43.86
2022-09-23T13:50:48.574Z,43.39
2022-09-23T13:53:21.886Z,43.47
2022-09-23T13:56:01.514Z,44.25
2022-09-23T13:58:30.768Z,43.67
2022-09-23T14:00:58.869Z,44.21
2022-09-23T14:03:35.347Z,45.20
2022-09-23T14:06:07.148Z,44.73
2022-09-23T14:08:38.241Z,44.28
2022-09-23T14:11:06.849Z,43.48
2022-09-23T14:13:41.785Z,44.28
2022-09-23T14:16:11.693Z,43.92
2022-09-23T14:18:42.813Z,44.81
2022-09-23T14:21:28.933Z,44.57
2022-09-23T14:23:57.505Z,45.14
2022-09-23T14:26:25.787Z,45.21
2022-09-23T14:28:54.131Z,45.66
2022-09-23T14:31:22.098Z,45.56
2022-09-23T14:33:51.983Z,45.67
2022-09-23T14:36:37.514Z,45.33
2022-09-23T14:39:07.345Z,46.12
2022-09-23T14:41:38.613Z,45.71
2022-09-23T14:44:07.625Z,45.88
2022-09-23T14:46:36.758Z,45.14
2022-09-23T14:49:08.307Z,44.69
2022-09-23T14:51:42.363Z,45.24
2022-09-23T14:54:33.479Z,44.25
2022-09-23T14:57:01.784Z,44.79
2022-09-23T14:59:34.269Z,44.42
2022-09-23T15:02:02.090Z,45.22
2022-09-23T15:04:32.781Z,45.08
2022-09-23T15:07:03.950Z,45.03
2022-09-23T15:09:34.638Z,45.04
2022-09-23T15:12:04.108Z,45.38
2022-09-23T15:14:39.204Z,46.23
2022-09-23T15:17:16.115Z,45.86
2022-09-23T15:19:46.564Z,46.27
2022-09-23T15:22:16.656Z,46.78
2022-09-23T15:24:46.202Z,46.84
2022-09-23T15:27:30.869Z,46.56
2022-09-23T15:30:18.758Z,46.58
2022-09-23T15:32:47.445Z,45.54
2022-09-23T15:35:18.859Z,46.46
2022-09-23T15:37:48.174Z,46.88
2022-09-23T15:40:20.971Z,47.35
2022-09-23T15:42:52.549Z,47.87
2022-09-23T15:45:22.040Z,48.50
2022-09-23T15:47:52.292Z,48.23
2022-09-23T15:50:21.631Z,49.30
2022-09-23T15:52:49.499Z,48.91
2022-09-23T15:55:18.667Z,49.42
2022-09-23T15:57:46.504Z,49.67
2022-09-23T16:00:16.035Z,49.81
2022-09-23T16:02:45.545Z,50.18
2022-09-23T16:05:18.745Z,50.03
2022-09-23T16:07:48.461Z,50.23
2022-09-23T16:10:16.973Z,50.89
2022-09-23T16:12:44.953Z,51.99
2022-09-23T16:15:15.391Z,52.37
2022-09-23T16:17:44.384Z,51.75
2022-09-23T16:20:12.895Z,52.16
2022-09-23T16:22:42.758Z,52.95
2022-09-23T16:25:14.242Z,53.34
2022-09-23T16:27:42.321Z,54.08
2022-09-23T16:30:12.021Z,54.57
2022-09-23T16:32:40.237Z,55.48
2022-09-23T16:35:09.378Z,56.13
2022-09-23T16:37:37.221Z,56.47
2022-09-23T16:40:07.515Z,56.43
2022-09-23T16:42:38.328Z,57.01
2022-09-23T16:45:07.101Z,57.29
2022-09-23T16:47:35.275Z,57.47
2022-09-23T16:50:03.206Z,57.50
2022-09-23T16:52:31.092Z,57.25
2022-09-23T16:55:00.290Z,57.28
2022-09-23T16:57:30.002Z,57.62
2022-09-23T17:00:16.677Z,58.11
2022-09-23T17:03:02.143Z,57.93
2022-09-23T17:05:30.003Z,58.38
2022-09-23T17:07:57.835Z,58.70
2022-09-23T17:10:25.729Z,58.78
2022-09-23T17:12:54.530Z,59.25
2022-09-23T17:15:23.985Z,59.59
2022-09-23T17:17:51.805Z,59.77
2022-09-23T17:20:20.141Z,60.42
2022-09-23T17:22:48.418Z,60.18
2022-09-23T17:25:16.742Z,60.63
2022-09-23T17:27:44.552Z,60.39
2022-09-23T17:30:14.581Z,60.89
2022-09-23T17:32:44.240Z,61.08
2022-09-23T17:35:12.496Z,61.90
2022-09-23T17:37:40.381Z,62.42
2022-09-23T17:40:09.155Z,63.06
2022-09-23T17:42:41.271Z,63.28
2022-09-23T17:45:10.401Z,63.31
2022-09-23T17:47:41.711Z,62.80
2022-09-23T17:50:11.489Z,62.91
2022-09-23T17:52:39.466Z,62.85
2022-09-23T17:55:08.766Z,63.08
2022-09-23T17:57:36.598Z,63.25
2022-09-23T18:00:05.190Z,63.31
2022-09-23T18:02:33.032Z,63.77
2022-09-23T18:05:00.893Z,64.02
2022-09-23T18:07:30.116Z,64.86
2022-09-23T18:09:57.996Z,65.18
2022-09-23T18:12:26.155Z,64.83
2022-09-23T18:14:53.977Z,64.65
2022-09-23T18:17:22.081Z,64.27
2022-09-23T18:19:50.546Z,64.31
2022-09-23T18:22:20.867Z,64.51
2022-09-23T18:24:50.110Z,64.59
2022-09-23T18:27:17.873Z,64.23
2022-09-23T18:29:45.853Z,64.67
2022-09-23T18:32:14.531Z,64.88
2022-09-23T18:34:42.726Z,65.01
2022-09-23T18:37:15.638Z,65.28
2022-09-23T18:39:44.620Z,65.22
2022-09-23T18:42:14.397Z,65.46
2022-09-23T18:44:42.462Z,65.72
2022-09-23T18:47:31.390Z,65.82
2022-09-23T18:50:16.757Z,65.74
2022-09-23T18:52:44.592Z,66.59
2022-09-23T18:55:12.694Z,66.44
2022-09-23T18:57:42.091Z,67.11
2022-09-23T19:00:11.337Z,66.69
2022-09-23T19:02:39.128Z,67.06
2022-09-23T19:05:07.941Z,66.83
2022-09-23T19:07:36.038Z,66.44
2022-09-23T19:10:04.097Z,67.40
2022-09-23T19:12:32.345Z,67.32
2022-09-23T19:15:01.592Z,67.21
2022-09-23T19:17:30.183Z,67.21
2022-09-23T19:19:58.578Z,66.89
2022-09-23T19:22:26.650Z,67.41
2022-09-23T19:24:54.540Z,67.87
2022-09-23T19:27:23.488Z,67.76
2022-09-23T19:29:51.319Z,67.38
2022-09-23T19:32:21.256Z,67.74
2022-09-23T19:34:49.681Z,67.85
2022-09-23T19:37:17.745Z,68.12
2022-09-23T19:39:47.575Z,68.26
2022-09-23T19:42:15.438Z,67.91
2022-09-23T19:44:44.649Z,68.04
2022-09-23T19:47:15.628Z,67.65
2022-09-23T19:49:45.022Z,68.52
2022-09-23T19:52:12.965Z,68.48
2022-09-23T19:54:40.903Z,68.33
2022-09-23T19:57:11.660Z,68.48
2022-09-23T19:59:40.307Z,69.01
2022-09-23T20:02:10.327Z,69.23
2022-09-23T20:04:38.194Z,69.09
2022-09-23T20:07:08.967Z,68.64
2022-09-23T20:09:36.802Z,68.65
2022-09-23T20:12:04.965Z,69.13
2022-09-23T20:14:32.751Z,69.24
2022-09-23T20:17:01.846Z,69.12
2022-09-23T20:19:29.718Z,68.52
2022-09-23T20:22:23.387Z,69.26
2022-09-23T20:24:52.904Z,69.15
2022-09-23T20:27:21.006Z,69.67
2022-09-23T20:29:50.176Z,69.70
2022-09-23T20:32:18.209Z,69.78
2022-09-23T20:34:49.097Z,69.52
2022-09-23T20:37:18.367Z,69.50
2022-09-23T20:39:47.485Z,69.72
2022-09-23T20:42:18.624Z,70.61
2022-09-23T20:44:48.343Z,70.67
2022-09-23T20:47:18.853Z,70.37
2022-09-23T20:49:49.022Z,70.83
2022-09-23T20:52:21.501Z,71.09
2022-09-23T20:54:52.207Z,71.25
2022-09-23T20:57:22.335Z,70.81
2022-09-23T20:59:50.520Z,71.08
2022-09-23T21:02:19.324Z,71.21
2022-09-23T21:04:47.938Z,71.11
2022-09-23T21:07:17.535Z,71.43
2022-09-23T21:09:46.069Z,71.82
2022-09-23T21:12:14.956Z,72.25
2022-09-23T21:14:44.826Z,72.06
2022-09-23T21:17:13.285Z,71.54
2022-09-23T21:19:41.916Z,72.00
2022-09-23T21:22:10.955Z,71.53
2022-09-23T21:25:25.163Z,71.59
2022-09-23T21:27:27.152Z,71.79
2022-09-23T21:29:56.649Z,72.06
2022-09-23T21:32:24.780Z,71.00
2022-09-23T21:34:52.632Z,71.35
2022-09-23T21:37:21.622Z,72.17
2022-09-23T21:40:09.856Z,71.49
2022-09-23T21:42:37.785Z,71.57
2022-09-23T21:45:09.124Z,72.08
2022-09-23T21:47:36.916Z,71.69
2022-09-23T21:50:05.386Z,72.55
2022-09-23T21:52:33.328Z,72.17
2022-09-23T21:55:01.500Z,71.70
2022-09-23T21:57:31.271Z,72.40
2022-09-23T21:59:59.097Z,72.89
2022-09-23T22:02:28.853Z,73.45
2022-09-23T22:04:56.787Z,73.56
2022-09-23T22:07:24.910Z,73.42
2022-09-23T22:09:52.722Z,73.38
2022-09-23T22:12:20.789Z,73.47
2022-09-23T22:14:49.168Z,74.16
2022-09-23T22:17:16.980Z,73.76
2022-09-23T22:19:47.538Z,73.67
2022-09-23T22:22:17.898Z,73.87
2022-09-23T22:24:46.944Z,73.33
2022-09-23T22:27:17.551Z,73.85
2022-09-23T22:30:03.521Z,73.20
2022-09-23T22:32:46.095Z,74.06
2022-09-23T22:35:17.818Z,74.90
2022-09-23T22:37:47.275Z,74.13
2022-09-23T22:40:16.615Z,74.00
2022-09-23T22:42:44.921Z,73.99
2022-09-23T22:45:13.486Z,74.28
2022-09-23T22:47:43.642Z,74.01
2022-09-23T22:50:13.939Z,73.63
2022-09-23T22:52:43.784Z,74.04
2022-09-23T22:55:12.093Z,73.47
2022-09-23T22:57:40.175Z,73.73
2022-09-23T23:00:12.173Z,73.92
2022-09-23T23:02:40.441Z,74.84
2022-09-23T23:05:09.005Z,74.24
2022-09-23T23:07:37.369Z,74.56
2022-09-23T23:10:10.231Z,74.28
2022-09-23T23:12:40.148Z,74.30
2022-09-23T23:15:12.370Z,74.38
2022-09-23T23:17:41.419Z,74.58
2022-09-23T23:20:10.017Z,75.14
2022-09-23T23:22:38.049Z,74.75
2022-09-23T23:25:08.135Z,75.36
2022-09-23T23:27:36.198Z,75.34
2022-09-23T23:30:04.523Z,74.46
2022-09-23T23:32:32.459Z,74.10
2022-09-23T23:35:00.302Z,74.23
2022-09-23T23:37:29.665Z,74.35
2022-09-23T23:39:57.516Z,73.77
2022-09-23T23:42:27.158Z,74.66
2022-09-23T23:44:55.294Z,74.82
2022-09-23T23:47:23.368Z,74.55
2022-09-23T23:49:51.239Z,74.88
2022-09-23T23:52:19.191Z,74.61
2022-09-23T23:54:47.272Z,74.60
2022-09-23T23:57:15.222Z,74.69
2022-09-23T23:59:44.707Z,74.53
